sensor_id;sensor_type;location;lat;lon;timestamp;pressure;altitude;pressure_sealevel;temperature;humidity
16355;BME280;8287;51.644;8.494;2023-02-04T00:02:00;101699.16;;;8.31;81.87
16355;BME280;8287;51.644;8.494;2023-02-04T00:04:27;101687.47;;;8.22;82.11
16355;BME280;8287;51.644;8.494;2023-02-04T00:06:53;101705.19;;;8.27;81.95
16355;BME280;8287;51.644;8.494;2023-02-04T00:09:21;101705.44;;;8.25;82.14
16355;BME280;8287;51.644;8.494;2023-02-04T00:11:48;101708.66;;;8.27;81.77
16355;BME280;8287;51.644;8.494;2023-02-04T00:14:14;101717.09;;;8.29;82.08
16355;BME280;8287;51.644;8.494;2023-02-04T00:16:41;101711.28;;;8.27;81.91
16355;BME280;8287;51.644;8.494;2023-02-04T00:19:08;101715.00;;;8.31;81.68
16355;BME280;8287;51.644;8.494;2023-02-04T00:21:34;101727.41;;;8.31;81.74
16355;BME280;8287;51.644;8.494;2023-02-04T00:24:01;101725.56;;;8.31;81.95
16355;BME280;8287;51.644;8.494;2023-02-04T00:26:29;101735.94;;;8.43;81.82
16355;BME280;8287;51.644;8.494;2023-02-04T00:28:55;101732.00;;;8.45;81.43
16355;BME280;8287;51.644;8.494;2023-02-04T00:31:22;101735.13;;;8.42;81.84
16355;BME280;8287;51.644;8.494;2023-02-04T00:33:49;101748.59;;;8.41;81.54
16355;BME280;8287;51.644;8.494;2023-02-04T00:36:16;101755.75;;;8.45;81.31
16355;BME280;8287;51.644;8.494;2023-02-04T00:38:42;101753.69;;;8.52;81.35
16355;BME280;8287;51.644;8.494;2023-02-04T00:41:09;101759.44;;;8.44;81.15
16355;BME280;8287;51.644;8.494;2023-02-04T00:43:37;101760.78;;;8.47;80.99
16355;BME280;8287;51.644;8.494;2023-02-04T00:46:04;101764.97;;;8.43;81.04
16355;BME280;8287;51.644;8.494;2023-02-04T00:48:30;101767.09;;;8.46;80.77
16355;BME280;8287;51.644;8.494;2023-02-04T00:50:58;101757.63;;;8.50;81.07
16355;BME280;8287;51.644;8.494;2023-02-04T00:53:25;101768.97;;;8.50;80.71
16355;BME280;8287;51.644;8.494;2023-02-04T00:55:51;101775.88;;;8.56;80.95
16355;BME280;8287;51.644;8.494;2023-02-04T00:58:18;101775.88;;;8.51;80.72
16355;BME280;8287;51.644;8.494;2023-02-04T01:00:46;101776.13;;;8.50;80.46
16355;BME280;8287;51.644;8.494;2023-02-04T01:03:12;101781.41;;;8.55;80.94
16355;BME280;8287;51.644;8.494;2023-02-04T01:05:39;101784.06;;;8.55;81.04
16355;BME280;8287;51.644;8.494;2023-02-04T01:08:05;101787.50;;;8.55;81.19
16355;BME280;8287;51.644;8.494;2023-02-04T01:10:32;101795.69;;;8.54;81.12
16355;BME280;8287;51.644;8.494;2023-02-04T01:12:58;101798.66;;;8.62;80.86
16355;BME280;8287;51.644;8.494;2023-02-04T01:15:26;101800.47;;;8.57;80.40
16355;BME280;8287;51.644;8.494;2023-02-04T01:17:54;101807.13;;;8.64;80.91
16355;BME280;8287;51.644;8.494;2023-02-04T01:20:20;101800.78;;;8.65;80.47
16355;BME280;8287;51.644;8.494;2023-02-04T01:22:47;101803.22;;;8.72;80.34
16355;BME280;8287;51.644;8.494;2023-02-04T01:25:13;101814.84;;;8.76;80.50
16355;BME280;8287;51.644;8.494;2023-02-04T01:27:40;101818.25;;;8.71;80.53
16355;BME280;8287;51.644;8.494;2023-02-04T01:30:08;101819.56;;;8.69;80.40
16355;BME280;8287;51.644;8.494;2023-02-04T01:32:35;101829.38;;;8.73;80.67
16355;BME280;8287;51.644;8.494;2023-02-04T01:35:03;101822.75;;;8.71;80.43
16355;BME280;8287;51.644;8.494;2023-02-04T01:37:30;101824.34;;;8.72;80.57
16355;BME280;8287;51.644;8.494;2023-02-04T01:39:56;101826.94;;;8.67;80.72
16355;BME280;8287;51.644;8.494;2023-02-04T01:42:23;101837.47;;;8.62;80.84
16355;BME280;8287;51.644;8.494;2023-02-04T01:44:50;101840.94;;;8.62;80.82
16355;BME280;8287;51.644;8.494;2023-02-04T01:47:17;101841.69;;;8.58;80.57
16355;BME280;8287;51.644;8.494;2023-02-04T01:49:45;101849.84;;;8.51;81.38
16355;BME280;8287;51.644;8.494;2023-02-04T01:52:16;101847.16;;;8.46;81.29
16355;BME280;8287;51.644;8.494;2023-02-04T01:54:43;101848.97;;;8.46;81.46
16355;BME280;8287;51.644;8.494;2023-02-04T01:57:14;101853.66;;;8.34;82.09
16355;BME280;8287;51.644;8.494;2023-02-04T01:59:42;101853.88;;;8.27;82.87
16355;BME280;8287;51.644;8.494;2023-02-04T02:02:38;101851.16;;;8.22;82.98
16355;BME280;8287;51.644;8.494;2023-02-04T02:05:06;101856.75;;;8.26;82.73
16355;BME280;8287;51.644;8.494;2023-02-04T02:07:35;101844.78;;;8.18;83.67
16355;BME280;8287;51.644;8.494;2023-02-04T02:10:02;101852.66;;;8.13;84.20
16355;BME280;8287;51.644;8.494;2023-02-04T02:12:29;101856.56;;;8.11;84.38
16355;BME280;8287;51.644;8.494;2023-02-04T02:14:56;101862.41;;;8.13;84.31
16355;BME280;8287;51.644;8.494;2023-02-04T02:17:23;101872.38;;;8.06;84.95
16355;BME280;8287;51.644;8.494;2023-02-04T02:19:49;101869.69;;;8.01;85.45
16355;BME280;8287;51.644;8.494;2023-02-04T02:22:20;101865.22;;;8.01;85.22
16355;BME280;8287;51.644;8.494;2023-02-04T02:24:51;101852.78;;;7.97;85.79
16355;BME280;8287;51.644;8.494;2023-02-04T02:27:18;101875.94;;;7.95;85.69
16355;BME280;8287;51.644;8.494;2023-02-04T02:29:45;101867.16;;;7.84;86.26
16355;BME280;8287;51.644;8.494;2023-02-04T02:32:13;101869.53;;;7.86;86.50
16355;BME280;8287;51.644;8.494;2023-02-04T02:34:40;101870.28;;;7.81;86.65
16355;BME280;8287;51.644;8.494;2023-02-04T02:37:08;101878.78;;;7.88;86.42
16355;BME280;8287;51.644;8.494;2023-02-04T02:39:35;101880.81;;;7.81;87.11
16355;BME280;8287;51.644;8.494;2023-02-04T02:42:03;101879.22;;;7.80;86.95
16355;BME280;8287;51.644;8.494;2023-02-04T02:44:30;101884.00;;;7.83;87.28
16355;BME280;8287;51.644;8.494;2023-02-04T02:46:57;101895.38;;;7.84;87.30
16355;BME280;8287;51.644;8.494;2023-02-04T02:49:25;101894.00;;;7.81;87.52
16355;BME280;8287;51.644;8.494;2023-02-04T02:51:54;101889.25;;;7.78;87.51
16355;BME280;8287;51.644;8.494;2023-02-04T02:54:22;101897.66;;;7.75;88.11
16355;BME280;8287;51.644;8.494;2023-02-04T02:56:50;101898.22;;;7.77;88.13
16355;BME280;8287;51.644;8.494;2023-02-04T02:59:19;101903.59;;;7.87;87.51
16355;BME280;8287;51.644;8.494;2023-02-04T03:01:47;101908.31;;;7.85;87.49
16355;BME280;8287;51.644;8.494;2023-02-04T03:04:16;101911.50;;;7.87;87.54
16355;BME280;8287;51.644;8.494;2023-02-04T03:06:44;101907.28;;;7.86;87.74
16355;BME280;8287;51.644;8.494;2023-02-04T03:09:11;101908.63;;;7.89;87.49
16355;BME280;8287;51.644;8.494;2023-02-04T03:11:38;101909.22;;;7.96;87.59
16355;BME280;8287;51.644;8.494;2023-02-04T03:14:05;101919.03;;;8.00;87.43
16355;BME280;8287;51.644;8.494;2023-02-04T03:16:33;101915.53;;;7.95;87.40
16355;BME280;8287;51.644;8.494;2023-02-04T03:19:04;101915.66;;;8.05;87.58
16355;BME280;8287;51.644;8.494;2023-02-04T03:21:31;101912.72;;;8.01;87.44
16355;BME280;8287;51.644;8.494;2023-02-04T03:23:58;101906.88;;;7.99;87.34
16355;BME280;8287;51.644;8.494;2023-02-04T03:26:26;101918.31;;;8.05;87.73
16355;BME280;8287;51.644;8.494;2023-02-04T03:28:53;101915.41;;;8.06;87.58
16355;BME280;8287;51.644;8.494;2023-02-04T03:31:19;101927.25;;;8.04;87.22
16355;BME280;8287;51.644;8.494;2023-02-04T03:33:47;101925.13;;;8.01;87.71
16355;BME280;8287;51.644;8.494;2023-02-04T03:36:14;101925.34;;;7.99;88.00
16355;BME280;8287;51.644;8.494;2023-02-04T03:38:40;101932.97;;;7.96;87.89
16355;BME280;8287;51.644;8.494;2023-02-04T03:41:07;101945.81;;;7.87;88.75
16355;BME280;8287;51.644;8.494;2023-02-04T03:43:33;101938.41;;;7.84;88.94
16355;BME280;8287;51.644;8.494;2023-02-04T03:46:00;101945.00;;;7.87;88.80
16355;BME280;8287;51.644;8.494;2023-02-04T03:48:26;101944.75;;;7.88;89.16
16355;BME280;8287;51.644;8.494;2023-02-04T03:50:54;101948.03;;;7.95;88.44
16355;BME280;8287;51.644;8.494;2023-02-04T03:53:21;101948.25;;;7.94;88.96
16355;BME280;8287;51.644;8.494;2023-02-04T03:55:48;101946.13;;;7.91;89.26
16355;BME280;8287;51.644;8.494;2023-02-04T03:58:15;101952.13;;;7.86;89.38
16355;BME280;8287;51.644;8.494;2023-02-04T04:00:42;101957.72;;;7.90;88.99
16355;BME280;8287;51.644;8.494;2023-02-04T04:03:08;101959.50;;;7.84;89.52
16355;BME280;8287;51.644;8.494;2023-02-04T04:05:35;101963.47;;;7.87;89.37
16355;BME280;8287;51.644;8.494;2023-02-04T04:08:03;101960.06;;;7.86;89.05
16355;BME280;8287;51.644;8.494;2023-02-04T04:10:29;101961.66;;;7.87;89.10
16355;BME280;8287;51.644;8.494;2023-02-04T04:12:56;101975.69;;;7.93;89.13
16355;BME280;8287;51.644;8.494;2023-02-04T04:15:23;101972.19;;;7.87;89.46
16355;BME280;8287;51.644;8.494;2023-02-04T04:17:50;101993.38;;;7.92;88.93
16355;BME280;8287;51.644;8.494;2023-02-04T04:20:16;101995.44;;;7.90;89.22
16355;BME280;8287;51.644;8.494;2023-02-04T04:22:43;101990.00;;;7.97;88.72
16355;BME280;8287;51.644;8.494;2023-02-04T04:25:12;101995.28;;;7.97;89.39
16355;BME280;8287;51.644;8.494;2023-02-04T04:27:38;102002.16;;;7.98;88.83
16355;BME280;8287;51.644;8.494;2023-02-04T04:30:05;102000.56;;;7.97;89.10
16355;BME280;8287;51.644;8.494;2023-02-04T04:32:32;102005.78;;;7.92;89.18
16355;BME280;8287;51.644;8.494;2023-02-04T04:34:58;102010.84;;;7.98;89.08
16355;BME280;8287;51.644;8.494;2023-02-04T04:37:25;102021.09;;;7.95;89.23
16355;BME280;8287;51.644;8.494;2023-02-04T04:39:51;102031.22;;;8.03;88.99
16355;BME280;8287;51.644;8.494;2023-02-04T04:42:20;102030.69;;;8.01;89.09
16355;BME280;8287;51.644;8.494;2023-02-04T04:44:46;102033.31;;;8.01;89.40
16355;BME280;8287;51.644;8.494;2023-02-04T04:47:13;102021.97;;;8.00;89.45
16355;BME280;8287;51.644;8.494;2023-02-04T04:49:39;102025.72;;;8.04;88.81
16355;BME280;8287;51.644;8.494;2023-02-04T04:52:06;102028.91;;;8.06;88.83
16355;BME280;8287;51.644;8.494;2023-02-04T04:54:32;102020.50;;;8.09;88.61
16355;BME280;8287;51.644;8.494;2023-02-04T04:56:59;102026.25;;;8.06;89.10
16355;BME280;8287;51.644;8.494;2023-02-04T04:59:27;102033.72;;;8.09;88.86
16355;BME280;8287;51.644;8.494;2023-02-04T05:01:53;102038.19;;;8.09;88.91
16355;BME280;8287;51.644;8.494;2023-02-04T05:04:20;102051.16;;;8.10;88.53
16355;BME280;8287;51.644;8.494;2023-02-04T05:06:47;102054.84;;;8.09;88.95
16355;BME280;8287;51.644;8.494;2023-02-04T05:09:13;102064.03;;;8.07;88.92
16355;BME280;8287;51.644;8.494;2023-02-04T05:11:41;102058.22;;;8.05;88.82
16355;BME280;8287;51.644;8.494;2023-02-04T05:14:08;102063.19;;;8.01;88.60
16355;BME280;8287;51.644;8.494;2023-02-04T05:16:36;102067.41;;;8.02;89.02
16355;BME280;8287;51.644;8.494;2023-02-04T05:19:02;102066.34;;;8.03;88.99
16355;BME280;8287;51.644;8.494;2023-02-04T05:21:29;102069.47;;;8.00;89.05
16355;BME280;8287;51.644;8.494;2023-02-04T05:23:55;102078.44;;;7.99;88.91
16355;BME280;8287;51.644;8.494;2023-02-04T05:26:22;102078.38;;;7.94;89.13
16355;BME280;8287;51.644;8.494;2023-02-04T05:28:48;102071.19;;;7.90;89.17
16355;BME280;8287;51.644;8.494;2023-02-04T05:31:15;102068.88;;;7.93;88.74
16355;BME280;8287;51.644;8.494;2023-02-04T05:33:43;102082.00;;;7.88;88.83
16355;BME280;8287;51.644;8.494;2023-02-04T05:36:09;102086.78;;;7.91;89.08
16355;BME280;8287;51.644;8.494;2023-02-04T05:38:36;102080.41;;;7.87;88.85
16355;BME280;8287;51.644;8.494;2023-02-04T05:41:03;102083.75;;;7.83;89.39
16355;BME280;8287;51.644;8.494;2023-02-04T05:43:29;102086.72;;;7.86;89.31
16355;BME280;8287;51.644;8.494;2023-02-04T05:45:56;102099.09;;;7.86;89.02
16355;BME280;8287;51.644;8.494;2023-02-04T05:48:23;102094.09;;;7.84;89.08
16355;BME280;8287;51.644;8.494;2023-02-04T05:50:50;102100.69;;;7.87;89.09
16355;BME280;8287;51.644;8.494;2023-02-04T05:53:17;102098.88;;;7.87;89.26
16355;BME280;8287;51.644;8.494;2023-02-04T05:55:44;102104.38;;;7.86;89.26
16355;BME280;8287;51.644;8.494;2023-02-04T05:58:10;102107.81;;;7.86;89.30
16355;BME280;8287;51.644;8.494;2023-02-04T06:00:37;102116.53;;;7.87;89.16
16355;BME280;8287;51.644;8.494;2023-02-04T06:03:04;102114.16;;;7.85;89.15
16355;BME280;8287;51.644;8.494;2023-02-04T06:05:31;102118.94;;;7.88;88.92
16355;BME280;8287;51.644;8.494;2023-02-04T06:07:59;102120.38;;;7.79;88.78
16355;BME280;8287;51.644;8.494;2023-02-04T06:10:25;102117.19;;;7.77;88.96
16355;BME280;8287;51.644;8.494;2023-02-04T06:12:52;102132.03;;;7.83;89.00
16355;BME280;8287;51.644;8.494;2023-02-04T06:15:18;102129.97;;;7.85;89.05
16355;BME280;8287;51.644;8.494;2023-02-04T06:17:45;102127.59;;;7.67;88.48
16355;BME280;8287;51.644;8.494;2023-02-04T06:20:13;102131.44;;;7.60;89.60
16355;BME280;8287;51.644;8.494;2023-02-04T06:22:40;102136.88;;;7.53;89.35
16355;BME280;8287;51.644;8.494;2023-02-04T06:25:08;102147.91;;;7.50;89.55
16355;BME280;8287;51.644;8.494;2023-02-04T06:27:35;102150.94;;;7.42;89.76
16355;BME280;8287;51.644;8.494;2023-02-04T06:30:01;102150.94;;;7.42;89.75
16355;BME280;8287;51.644;8.494;2023-02-04T06:32:28;102155.72;;;7.45;89.78
16355;BME280;8287;51.644;8.494;2023-02-04T06:34:55;102152.91;;;7.35;90.49
16355;BME280;8287;51.644;8.494;2023-02-04T06:37:22;102162.91;;;7.33;91.12
16355;BME280;8287;51.644;8.494;2023-02-04T06:39:48;102163.47;;;7.35;91.22
16355;BME280;8287;51.644;8.494;2023-02-04T06:42:17;102157.06;;;7.31;91.05
16355;BME280;8287;51.644;8.494;2023-02-04T06:44:44;102162.91;;;7.33;91.32
16355;BME280;8287;51.644;8.494;2023-02-04T06:47:10;102167.84;;;7.30;91.62
16355;BME280;8287;51.644;8.494;2023-02-04T06:49:37;102178.63;;;7.28;91.57
16355;BME280;8287;51.644;8.494;2023-02-04T06:52:04;102175.44;;;7.26;92.18
16355;BME280;8287;51.644;8.494;2023-02-04T06:54:30;102176.09;;;7.33;92.31
16355;BME280;8287;51.644;8.494;2023-02-04T06:56:57;102182.38;;;7.32;91.68
16355;BME280;8287;51.644;8.494;2023-02-04T06:59:32;102183.19;;;7.33;91.51
16355;BME280;8287;51.644;8.494;2023-02-04T07:01:58;102182.72;;;7.36;91.42
16355;BME280;8287;51.644;8.494;2023-02-04T07:04:25;102198.41;;;7.42;90.99
16355;BME280;8287;51.644;8.494;2023-02-04T07:06:52;102184.94;;;7.27;91.33
16355;BME280;8287;51.644;8.494;2023-02-04T07:09:19;102179.91;;;7.26;91.56
16355;BME280;8287;51.644;8.494;2023-02-04T07:11:46;102191.59;;;7.30;91.69
16355;BME280;8287;51.644;8.494;2023-02-04T07:14:12;102184.84;;;7.22;91.08
16355;BME280;8287;51.644;8.494;2023-02-04T07:16:40;102190.69;;;7.24;91.39
16355;BME280;8287;51.644;8.494;2023-02-04T07:19:07;102205.47;;;7.25;91.17
16355;BME280;8287;51.644;8.494;2023-02-04T07:21:34;102207.31;;;7.25;90.92
16355;BME280;8287;51.644;8.494;2023-02-04T07:24:00;102207.97;;;7.32;90.81
16355;BME280;8287;51.644;8.494;2023-02-04T07:26:27;102209.38;;;7.23;90.56
16355;BME280;8287;51.644;8.494;2023-02-04T07:28:53;102206.75;;;7.23;91.54
16355;BME280;8287;51.644;8.494;2023-02-04T07:31:20;102213.94;;;7.27;91.22
16355;BME280;8287;51.644;8.494;2023-02-04T07:33:48;102209.38;;;7.23;91.10
16355;BME280;8287;51.644;8.494;2023-02-04T07:36:14;102211.13;;;7.17;91.27
16355;BME280;8287;51.644;8.494;2023-02-04T07:38:41;102220.53;;;7.13;91.02
16355;BME280;8287;51.644;8.494;2023-02-04T07:41:07;102219.25;;;7.16;90.82
16355;BME280;8287;51.644;8.494;2023-02-04T07:43:34;102222.13;;;7.14;90.79
16355;BME280;8287;51.644;8.494;2023-02-04T07:46:00;102222.50;;;7.06;90.54
16355;BME280;8287;51.644;8.494;2023-02-04T07:48:27;102228.81;;;7.05;91.05
16355;BME280;8287;51.644;8.494;2023-02-04T07:50:56;102232.84;;;6.96;90.83
16355;BME280;8287;51.644;8.494;2023-02-04T07:53:22;102235.84;;;6.88;90.91
16355;BME280;8287;51.644;8.494;2023-02-04T07:55:49;102238.94;;;6.85;91.54
16355;BME280;8287;51.644;8.494;2023-02-04T07:58:15;102243.94;;;6.98;91.72
16355;BME280;8287;51.644;8.494;2023-02-04T08:00:43;102236.38;;;7.02;91.68
16355;BME280;8287;51.644;8.494;2023-02-04T08:03:09;102241.09;;;7.00;91.52
16355;BME280;8287;51.644;8.494;2023-02-04T08:05:36;102246.69;;;7.03;91.52
16355;BME280;8287;51.644;8.494;2023-02-04T08:08:04;102240.84;;;7.13;90.88
16355;BME280;8287;51.644;8.494;2023-02-04T08:10:30;102249.72;;;7.23;90.29
16355;BME280;8287;51.644;8.494;2023-02-04T08:12:57;102247.06;;;7.23;89.32
16355;BME280;8287;51.644;8.494;2023-02-04T08:15:24;102243.91;;;7.10;89.17
16355;BME280;8287;51.644;8.494;2023-02-04T08:17:50;102243.28;;;7.31;89.58
16355;BME280;8287;51.644;8.494;2023-02-04T08:20:17;102247.47;;;7.43;89.25
16355;BME280;8287;51.644;8.494;2023-02-04T08:22:44;102251.31;;;7.52;88.44
16355;BME280;8287;51.644;8.494;2023-02-04T08:25:11;102246.84;;;7.53;87.72
16355;BME280;8287;51.644;8.494;2023-02-04T08:27:38;102259.25;;;7.52;87.75
16355;BME280;8287;51.644;8.494;2023-02-04T08:30:05;102269.25;;;7.67;86.84
16355;BME280;8287;51.644;8.494;2023-02-04T08:32:32;102268.16;;;7.79;86.41
16355;BME280;8287;51.644;8.494;2023-02-04T08:34:59;102277.84;;;7.90;85.84
16355;BME280;8287;51.644;8.494;2023-02-04T08:37:26;102269.13;;;7.90;85.36
16355;BME280;8287;51.644;8.494;2023-02-04T08:39:52;102270.25;;;8.10;85.47
16355;BME280;8287;51.644;8.494;2023-02-04T08:42:21;102274.78;;;8.26;84.70
16355;BME280;8287;51.644;8.494;2023-02-04T08:44:48;102274.75;;;8.43;83.18
16355;BME280;8287;51.644;8.494;2023-02-04T08:47:14;102277.22;;;8.49;83.12
16355;BME280;8287;51.644;8.494;2023-02-04T08:49:41;102288.72;;;8.60;82.33
16355;BME280;8287;51.644;8.494;2023-02-04T08:52:08;102280.38;;;8.68;81.69
16355;BME280;8287;51.644;8.494;2023-02-04T08:54:34;102289.69;;;8.70;81.30
16355;BME280;8287;51.644;8.494;2023-02-04T08:57:02;102299.75;;;8.73;80.93
16355;BME280;8287;51.644;8.494;2023-02-04T08:59:30;102298.19;;;8.39;79.15
16355;BME280;8287;51.644;8.494;2023-02-04T09:01:56;102300.59;;;8.24;80.11
16355;BME280;8287;51.644;8.494;2023-02-04T09:04:23;102305.66;;;8.26;80.66
16355;BME280;8287;51.644;8.494;2023-02-04T09:06:50;102313.63;;;8.47;80.34
16355;BME280;8287;51.644;8.494;2023-02-04T09:09:17;102307.72;;;8.40;79.83
16355;BME280;8287;51.644;8.494;2023-02-04T09:11:43;102320.59;;;8.53;80.20
16355;BME280;8287;51.644;8.494;2023-02-04T09:14:10;102321.34;;;8.49;79.63
16355;BME280;8287;51.644;8.494;2023-02-04T09:16:39;102325.06;;;8.69;79.36
16355;BME280;8287;51.644;8.494;2023-02-04T09:19:05;102317.81;;;8.43;77.28
16355;BME280;8287;51.644;8.494;2023-02-04T09:21:35;102319.25;;;8.51;78.98
16355;BME280;8287;51.644;8.494;2023-02-04T09:24:02;102326.53;;;8.44;77.53
16355;BME280;8287;51.644;8.494;2023-02-04T09:26:28;102338.88;;;8.22;77.58
16355;BME280;8287;51.644;8.494;2023-02-04T09:28:55;102335.88;;;8.18;79.08
16355;BME280;8287;51.644;8.494;2023-02-04T09:31:22;102345.97;;;8.38;78.79
16355;BME280;8287;51.644;8.494;2023-02-04T09:33:49;102340.22;;;8.24;78.62
16355;BME280;8287;51.644;8.494;2023-02-04T09:36:16;102335.91;;;8.35;77.98
16355;BME280;8287;51.644;8.494;2023-02-04T09:38:42;102334.91;;;8.57;78.47
16355;BME280;8287;51.644;8.494;2023-02-04T09:41:10;102346.91;;;8.81;77.60
16355;BME280;8287;51.644;8.494;2023-02-04T09:43:40;102344.44;;;8.75;73.91
16355;BME280;8287;51.644;8.494;2023-02-04T09:46:15;102345.81;;;8.77;75.08
16355;BME280;8287;51.644;8.494;2023-02-04T09:48:44;102350.81;;;8.79;75.94
16355;BME280;8287;51.644;8.494;2023-02-04T09:51:15;102347.88;;;9.13;76.50
16355;BME280;8287;51.644;8.494;2023-02-04T09:53:42;102342.84;;;9.33;77.00
16355;BME280;8287;51.644;8.494;2023-02-04T09:56:09;102342.50;;;9.51;76.67
16355;BME280;8287;51.644;8.494;2023-02-04T09:58:38;102344.69;;;9.54;75.97
16355;BME280;8287;51.644;8.494;2023-02-04T10:01:10;102348.09;;;9.55;72.68
16355;BME280;8287;51.644;8.494;2023-02-04T10:03:38;102360.75;;;9.48;70.21
16355;BME280;8287;51.644;8.494;2023-02-04T10:06:12;102368.84;;;9.63;69.40
16355;BME280;8287;51.644;8.494;2023-02-04T10:08:39;102369.59;;;9.58;70.29
16355;BME280;8287;51.644;8.494;2023-02-04T10:11:06;102365.59;;;9.77;71.33
16355;BME280;8287;51.644;8.494;2023-02-04T10:13:37;102366.03;;;9.48;70.05
16355;BME280;8287;51.644;8.494;2023-02-04T10:16:13;102364.50;;;9.52;71.65
16355;BME280;8287;51.644;8.494;2023-02-04T10:18:40;102363.94;;;9.71;71.44
16355;BME280;8287;51.644;8.494;2023-02-04T10:21:14;102361.66;;;9.58;70.09
16355;BME280;8287;51.644;8.494;2023-02-04T10:23:42;102370.59;;;9.52;70.76
16355;BME280;8287;51.644;8.494;2023-02-04T10:26:11;102355.47;;;9.74;71.49
16355;BME280;8287;51.644;8.494;2023-02-04T10:28:38;102358.22;;;9.84;71.03
16355;BME280;8287;51.644;8.494;2023-02-04T10:31:05;102366.88;;;10.01;69.63
16355;BME280;8287;51.644;8.494;2023-02-04T10:33:33;102363.78;;;9.82;68.92
16355;BME280;8287;51.644;8.494;2023-02-04T10:36:03;102360.56;;;9.80;68.58
16355;BME280;8287;51.644;8.494;2023-02-04T10:38:31;102368.16;;;10.20;70.14
16355;BME280;8287;51.644;8.494;2023-02-04T10:41:01;102362.81;;;10.15;69.04
16355;BME280;8287;51.644;8.494;2023-02-04T10:43:29;102375.66;;;10.28;68.39
16355;BME280;8287;51.644;8.494;2023-02-04T10:45:58;102384.16;;;10.35;67.99
16355;BME280;8287;51.644;8.494;2023-02-04T10:48:25;102385.78;;;10.36;67.05
16355;BME280;8287;51.644;8.494;2023-02-04T10:50:56;102375.69;;;10.64;68.46
16355;BME280;8287;51.644;8.494;2023-02-04T10:53:24;102389.13;;;10.58;68.19
16355;BME280;8287;51.644;8.494;2023-02-04T10:56:14;102393.72;;;10.67;68.23
16355;BME280;8287;51.644;8.494;2023-02-04T10:58:41;102395.16;;;10.85;67.65
16355;BME280;8287;51.644;8.494;2023-02-04T11:01:08;102394.13;;;10.91;68.02
16355;BME280;8287;51.644;8.494;2023-02-04T11:03:37;102385.06;;;10.82;66.86
16355;BME280;8287;51.644;8.494;2023-02-04T11:06:10;102391.28;;;11.02;67.11
16355;BME280;8287;51.644;8.494;2023-02-04T11:08:38;102390.81;;;11.10;66.42
16355;BME280;8287;51.644;8.494;2023-02-04T11:11:07;102387.34;;;11.10;64.59
16355;BME280;8287;51.644;8.494;2023-02-04T11:13:43;102384.63;;;10.95;64.86
16355;BME280;8287;51.644;8.494;2023-02-04T11:16:12;102387.28;;;11.00;65.58
16355;BME280;8287;51.644;8.494;2023-02-04T11:18:50;102385.41;;;10.90;63.10
16355;BME280;8287;51.644;8.494;2023-02-04T11:21:23;102375.91;;;11.04;64.99
16355;BME280;8287;51.644;8.494;2023-02-04T11:23:50;102386.22;;;10.96;65.48
16355;BME280;8287;51.644;8.494;2023-02-04T11:26:33;102377.63;;;11.25;65.49
16355;BME280;8287;51.644;8.494;2023-02-04T11:29:23;102378.50;;;11.41;64.30
16355;BME280;8287;51.644;8.494;2023-02-04T11:31:59;102384.13;;;11.49;62.05
16355;BME280;8287;51.644;8.494;2023-02-04T11:34:29;102394.06;;;11.22;62.53
16355;BME280;8287;51.644;8.494;2023-02-04T11:37:05;102390.38;;;11.28;61.79
16355;BME280;8287;51.644;8.494;2023-02-04T11:39:36;102391.19;;;11.34;63.98
16355;BME280;8287;51.644;8.494;2023-02-04T11:42:03;102381.88;;;11.31;61.93
16355;BME280;8287;51.644;8.494;2023-02-04T11:44:32;102385.88;;;11.29;61.58
16355;BME280;8287;51.644;8.494;2023-02-04T11:46:59;102401.66;;;11.04;62.01
16355;BME280;8287;51.644;8.494;2023-02-04T11:49:27;102396.28;;;11.40;64.03
16355;BME280;8287;51.644;8.494;2023-02-04T11:52:04;102392.56;;;11.41;62.84
16355;BME280;8287;51.644;8.494;2023-02-04T11:54:33;102388.06;;;11.47;63.57
16355;BME280;8287;51.644;8.494;2023-02-04T11:57:00;102395.06;;;11.63;63.40
16355;BME280;8287;51.644;8.494;2023-02-04T11:59:27;102404.78;;;11.42;62.14
16355;BME280;8287;51.644;8.494;2023-02-04T12:02:04;102404.00;;;11.52;63.58
16355;BME280;8287;51.644;8.494;2023-02-04T12:04:31;102408.16;;;11.28;58.48
16355;BME280;8287;51.644;8.494;2023-02-04T12:06:59;102404.41;;;11.24;58.38
16355;BME280;8287;51.644;8.494;2023-02-04T12:09:27;102398.44;;;11.53;61.25
16355;BME280;8287;51.644;8.494;2023-02-04T12:11:56;102403.00;;;11.58;59.39
16355;BME280;8287;51.644;8.494;2023-02-04T12:14:28;102401.38;;;11.57;60.54
16355;BME280;8287;51.644;8.494;2023-02-04T12:16:54;102401.84;;;11.44;60.26
16355;BME280;8287;51.644;8.494;2023-02-04T12:19:23;102408.59;;;11.61;60.53
16355;BME280;8287;51.644;8.494;2023-02-04T12:21:49;102404.59;;;11.59;59.43
16355;BME280;8287;51.644;8.494;2023-02-04T12:24:16;102407.53;;;11.62;60.23
16355;BME280;8287;51.644;8.494;2023-02-04T12:26:42;102411.13;;;11.36;61.10
16355;BME280;8287;51.644;8.494;2023-02-04T12:29:09;102410.84;;;11.33;62.72
16355;BME280;8287;51.644;8.494;2023-02-04T12:31:36;102408.34;;;11.63;63.50
16355;BME280;8287;51.644;8.494;2023-02-04T12:34:02;102405.47;;;11.74;61.54
16355;BME280;8287;51.644;8.494;2023-02-04T12:36:30;102407.38;;;11.89;61.92
16355;BME280;8287;51.644;8.494;2023-02-04T12:38:57;102422.53;;;12.03;60.12
16355;BME280;8287;51.644;8.494;2023-02-04T12:41:24;102415.66;;;11.36;59.47
16355;BME280;8287;51.644;8.494;2023-02-04T12:43:50;102423.47;;;11.57;60.41
16355;BME280;8287;51.644;8.494;2023-02-04T12:46:19;102408.88;;;11.65;60.94
16355;BME280;8287;51.644;8.494;2023-02-04T12:48:45;102413.03;;;11.46;61.70
16355;BME280;8287;51.644;8.494;2023-02-04T12:51:12;102426.25;;;11.36;61.51
16355;BME280;8287;51.644;8.494;2023-02-04T12:53:40;102414.00;;;11.30;63.37
16355;BME280;8287;51.644;8.494;2023-02-04T12:56:06;102418.31;;;11.36;61.78
16355;BME280;8287;51.644;8.494;2023-02-04T12:58:33;102411.44;;;11.50;62.82
16355;BME280;8287;51.644;8.494;2023-02-04T13:01:00;102414.50;;;11.78;61.77
16355;BME280;8287;51.644;8.494;2023-02-04T13:03:26;102410.97;;;11.58;61.12
16355;BME280;8287;51.644;8.494;2023-02-04T13:05:53;102415.06;;;11.34;61.43
16355;BME280;8287;51.644;8.494;2023-02-04T13:08:20;102416.75;;;11.50;62.62
16355;BME280;8287;51.644;8.494;2023-02-04T13:10:48;102410.25;;;11.26;62.63
16355;BME280;8287;51.644;8.494;2023-02-04T13:13:16;102416.94;;;11.33;61.97